createdAt,value
2017-06-23T00:00:23.189Z,13.37
2017-06-23T00:02:57.133Z,19.83
2017-06-23T00:05:33.721Z,15.37
2017-06-23T00:08:07.834Z,13.13
2017-06-23T00:10:41.039Z,15.37
2017-06-23T00:13:17.009Z,16.57
2017-06-23T00:15:53.439Z,14.90
2017-06-23T00:18:27.948Z,12.47
2017-06-23T00:21:01.765Z,12.97
2017-06-23T00:23:36.889Z,14.37
2017-06-23T00:26:10.400Z,12.77
2017-06-23T00:28:45.435Z,14.70
2017-06-23T00:31:19.797Z,11.67
2017-06-23T00:33:49.869Z,18.90
2017-06-23T00:36:24.694Z,17.67
2017-06-23T00:39:00.342Z,13.97
2017-06-23T00:41:33.676Z,16.17
2017-06-23T00:44:09.593Z,14.90
2017-06-23T00:46:43.611Z,18.23
2017-06-23T00:49:18.123Z,15.43
2017-06-23T00:51:54.698Z,13.80
2017-06-23T00:54:30.520Z,14.67
2017-06-23T00:57:08.488Z,15.90
2017-06-23T00:59:41.509Z,17.13
2017-06-23T01:02:14.932Z,15.50
2017-06-23T01:04:49.865Z,15.90
2017-06-23T01:07:24.074Z,20.23
2017-06-23T01:09:58.899Z,14.13
2017-06-23T01:12:34.303Z,16.70
2017-06-23T01:15:09.482Z,17.10
2017-06-23T01:17:46.355Z,16.73
2017-06-23T01:20:22.107Z,17.13
2017-06-23T01:22:56.012Z,17.33
2017-06-23T01:25:29.001Z,17.33
2017-06-23T01:28:03.121Z,21.73
2017-06-23T01:30:39.070Z,16.23
2017-06-23T01:33:15.535Z,21.07
2017-06-23T01:35:52.000Z,15.63
2017-06-23T01:38:26.112Z,17.07
2017-06-23T01:41:02.577Z,16.43
2017-06-23T01:43:37.937Z,17.47
2017-06-23T01:46:13.905Z,22.77
2017-06-23T02:06:04.786Z,12.47
2017-06-23T02:08:36.640Z,12.50
2017-06-23T02:11:13.609Z,14.13
2017-06-23T02:13:52.577Z,12.80
2017-06-23T02:16:27.989Z,13.13
2017-06-23T02:19:02.518Z,18.00
2017-06-23T02:21:37.489Z,11.60
2017-06-23T02:24:15.453Z,15.27
2017-06-23T02:26:48.632Z,12.63
2017-06-23T02:29:24.181Z,12.30
2017-06-23T02:31:58.903Z,16.40
2017-06-23T02:34:35.579Z,13.43
2017-06-23T02:37:10.097Z,12.60
2017-06-23T02:39:45.852Z,13.00
2017-06-23T02:42:21.237Z,11.90
2017-06-23T02:44:56.019Z,14.20
2017-06-23T02:47:33.174Z,12.40
2017-06-23T02:50:08.746Z,10.63
2017-06-23T02:52:42.656Z,11.63
2017-06-23T02:55:17.082Z,15.53
2017-06-23T02:57:52.073Z,16.17
2017-06-23T03:00:26.022Z,12.10
2017-06-23T03:02:58.795Z,13.83
2017-06-23T03:05:34.747Z,14.33
2017-06-23T03:08:08.123Z,10.13
2017-06-23T03:10:46.896Z,13.30
2017-06-23T03:13:30.863Z,11.30
2017-06-23T03:16:06.145Z,11.13
2017-06-23T03:18:41.803Z,13.13
2017-06-23T03:21:17.033Z,11.63
2017-06-23T03:23:49.508Z,11.03
2017-06-23T03:26:22.293Z,11.87
2017-06-23T03:28:55.987Z,12.03
2017-06-23T03:31:31.327Z,12.53
2017-06-23T03:34:08.925Z,10.23
2017-06-23T03:36:44.649Z,17.70
2017-06-23T03:39:19.557Z,9.80
2017-06-23T03:41:52.383Z,15.43
2017-06-23T03:44:30.286Z,12.40
2017-06-23T03:47:06.463Z,9.77
2017-06-23T03:49:42.197Z,12.77
2017-06-23T03:52:18.400Z,12.13
2017-06-23T03:54:53.392Z,10.77
2017-06-23T03:57:25.339Z,13.90
2017-06-23T04:00:01.097Z,11.30
2017-06-23T04:02:36.237Z,10.30
2017-06-23T04:05:12.700Z,14.00
2017-06-23T04:07:47.222Z,9.20
2017-06-23T04:10:24.184Z,10.77
2017-06-23T04:13:00.055Z,13.80
2017-06-23T04:15:36.122Z,10.73
2017-06-23T04:18:12.884Z,14.40
2017-06-23T04:20:49.060Z,9.53
2017-06-23T04:23:23.466Z,11.50
2017-06-23T04:25:58.804Z,11.53
2017-06-23T04:28:34.349Z,13.23
2017-06-23T04:31:09.968Z,13.30
2017-06-23T04:33:42.370Z,9.87
2017-06-23T04:36:19.454Z,14.80
2017-06-23T04:38:53.360Z,13.20
2017-06-23T04:41:27.814Z,11.83
2017-06-23T04:43:59.737Z,16.73
2017-06-23T04:46:36.207Z,12.43
2017-06-23T04:49:10.933Z,16.70
2017-06-23T04:51:48.420Z,12.00
2017-06-23T04:54:22.534Z,15.83
2017-06-23T04:56:56.630Z,11.63
2017-06-23T04:59:34.546Z,10.17
2017-06-23T05:02:07.122Z,10.90
2017-06-23T05:04:42.537Z,19.80
2017-06-23T05:07:18.317Z,14.70
2017-06-23T05:09:55.483Z,15.03
2017-06-23T05:12:32.997Z,10.43
2017-06-23T05:15:02.806Z,10.27
2017-06-23T05:17:36.384Z,14.97
2017-06-23T05:20:11.843Z,13.50
2017-06-23T05:22:47.323Z,13.20
2017-06-23T05:25:23.292Z,17.47
2017-06-23T05:27:57.558Z,14.37
2017-06-23T05:30:29.637Z,14.57
2017-06-23T05:33:06.203Z,17.37
2017-06-23T05:35:41.172Z,12.33
2017-06-23T05:38:17.491Z,18.20
2017-06-23T05:40:53.030Z,13.97
2017-06-23T05:43:27.859Z,13.87
2017-06-23T05:46:01.256Z,13.63
2017-06-23T05:48:34.017Z,11.87
2017-06-23T05:51:08.992Z,12.67
2017-06-23T05:53:43.596Z,11.43
2017-06-23T05:56:19.146Z,15.47
2017-06-23T05:58:53.896Z,15.90
2017-06-23T06:01:29.863Z,13.23
2017-06-23T06:04:04.342Z,11.60
2017-06-23T06:06:38.452Z,10.10
2017-06-23T06:09:12.787Z,18.33
2017-06-23T06:11:47.289Z,17.67
2017-06-23T06:14:25.189Z,20.27
2017-06-23T06:17:00.227Z,30.20
2017-06-23T06:19:33.410Z,21.07
2017-06-23T06:22:06.092Z,19.73
2017-06-23T06:24:42.966Z,22.07
2017-06-23T06:27:15.237Z,29.97
2017-06-23T06:29:53.524Z,26.30
2017-06-23T06:32:27.351Z,26.80
2017-06-23T06:35:05.463Z,14.83
2017-06-23T06:37:40.433Z,20.30
2017-06-23T06:40:14.403Z,23.67
2017-06-23T06:42:47.370Z,28.80
2017-06-23T06:45:22.822Z,24.57
2017-06-23T06:47:57.860Z,23.97
2017-06-23T06:50:36.065Z,24.60
2017-06-23T06:53:12.247Z,24.57
2017-06-23T06:55:49.217Z,22.23
2017-06-23T06:58:27.200Z,22.47
2017-06-23T07:01:01.115Z,27.50
2017-06-23T07:03:34.721Z,25.40
2017-06-23T07:06:10.973Z,26.90
2017-06-23T07:08:48.468Z,24.70
2017-06-23T07:11:23.503Z,19.57
2017-06-23T07:13:58.636Z,22.83
2017-06-23T07:16:31.622Z,21.50
2017-06-23T07:19:09.741Z,23.50
2017-06-23T07:21:46.400Z,22.33
2017-06-23T07:24:22.876Z,29.40
2017-06-23T07:26:57.849Z,20.30
2017-06-23T07:29:33.141Z,17.57
2017-06-23T07:32:08.274Z,22.63
2017-06-23T07:34:44.770Z,22.33
2017-06-23T07:37:20.181Z,18.87
2017-06-23T07:39:55.693Z,28.70
2017-06-23T07:42:34.661Z,19.77
2017-06-23T07:45:07.123Z,15.97
2017-06-23T07:47:38.653Z,20.27
2017-06-23T07:50:13.571Z,16.47
2017-06-23T07:52:48.233Z,20.77
2017-06-23T07:55:21.514Z,17.33
2017-06-23T07:57:53.530Z,19.43
2017-06-23T08:00:25.454Z,24.60
2017-06-23T08:02:59.866Z,18.40
2017-06-23T08:05:33.678Z,19.43
2017-06-23T08:08:09.116Z,16.70
2017-06-23T08:10:46.331Z,14.33
2017-06-23T08:13:19.897Z,15.70
2017-06-23T08:15:53.909Z,15.20
2017-06-23T08:18:28.020Z,19.40
2017-06-23T08:21:05.212Z,20.10
2017-06-23T08:23:39.227Z,18.07
2017-06-23T08:26:10.453Z,19.10
2017-06-23T08:28:47.850Z,17.97
2017-06-23T08:31:23.098Z,15.33
2017-06-23T08:33:57.602Z,16.80
2017-06-23T08:36:31.031Z,19.77
2017-06-23T08:39:04.596Z,14.87
2017-06-23T08:41:40.976Z,17.67
2017-06-23T08:44:16.941Z,18.00
2017-06-23T08:46:50.909Z,16.90
2017-06-23T08:49:24.427Z,14.13
2017-06-23T08:52:00.894Z,16.83
2017-06-23T08:54:34.902Z,16.70
2017-06-23T08:57:06.246Z,29.07
2017-06-23T08:59:40.566Z,17.37
2017-06-23T09:02:12.833Z,21.73
2017-06-23T09:04:47.698Z,16.20
2017-06-23T09:07:24.665Z,13.50
2017-06-23T09:09:57.930Z,19.67
2017-06-23T09:35:02.336Z,15.53
2017-06-23T09:37:33.633Z,13.73
2017-06-23T09:40:07.852Z,17.70
2017-06-23T09:42:40.836Z,26.63
2017-06-23T09:45:13.716Z,15.67
2017-06-23T09:47:47.731Z,18.73
2017-06-23T09:50:22.563Z,15.37
2017-06-23T09:52:56.470Z,24.73
2017-06-23T09:55:31.093Z,23.80
2017-06-23T09:58:06.059Z,17.40
2017-06-23T10:00:39.082Z,21.23
2017-06-23T10:03:11.990Z,15.20
2017-06-23T10:05:49.971Z,19.90
2017-06-23T10:08:25.434Z,21.97
2017-06-23T10:11:01.699Z,18.00
2017-06-23T10:13:35.396Z,26.37
2017-06-23T10:16:08.855Z,20.03
2017-06-23T10:18:40.445Z,14.47
2017-06-23T10:21:12.308Z,26.63
2017-06-23T10:23:43.551Z,17.63
2017-06-23T10:26:19.732Z,17.90
2017-06-23T10:28:55.254Z,11.70
2017-06-23T10:31:31.697Z,17.77
2017-06-23T10:34:09.007Z,10.67
2017-06-23T10:36:42.200Z,11.80
2017-06-23T10:39:18.577Z,10.83
2017-06-23T10:41:56.547Z,10.73
2017-06-23T10:44:34.158Z,10.17
2017-06-23T10:47:07.860Z,12.90
2017-06-23T10:49:43.454Z,14.10
2017-06-23T10:52:17.670Z,13.27
2017-06-23T10:54:51.413Z,12.07
2017-06-23T10:57:27.364Z,15.97
2017-06-23T11:00:01.329Z,11.27
2017-06-23T11:02:32.534Z,12.30
2017-06-23T11:05:06.647Z,8.97
2017-06-23T11:07:41.240Z,10.33
2017-06-23T11:10:16.210Z,13.37
2017-06-23T11:12:53.176Z,14.33
2017-06-23T11:15:28.148Z,16.40
2017-06-23T11:18:04.475Z,13.53
2017-06-23T11:20:40.535Z,14.13
2017-06-23T11:23:17.611Z,10.07
2017-06-23T11:25:51.624Z,13.70
2017-06-23T11:28:29.993Z,13.77
2017-06-23T11:31:05.578Z,9.50
2017-06-23T11:33:40.931Z,13.93
2017-06-23T11:36:16.901Z,15.27
2017-06-23T11:38:53.869Z,11.03
2017-06-23T11:41:27.150Z,13.73
2017-06-23T11:43:59.808Z,14.83
2017-06-23T11:46:37.314Z,12.00
2017-06-23T11:49:12.659Z,12.43
2017-06-23T11:51:51.717Z,10.33
2017-06-23T11:54:24.684Z,12.60
2017-06-23T11:56:58.653Z,11.43
2017-06-23T11:59:31.657Z,11.30
2017-06-23T12:02:06.290Z,7.03
2017-06-23T12:04:42.035Z,12.70
2017-06-23T12:07:12.767Z,12.63
2017-06-23T12:09:48.501Z,16.33
2017-06-23T12:12:21.606Z,13.87
2017-06-23T12:14:56.028Z,15.67
2017-06-23T12:17:32.184Z,11.60
2017-06-23T12:20:07.016Z,8.63
2017-06-23T12:22:39.998Z,8.73
2017-06-23T12:25:17.902Z,9.93
2017-06-23T12:27:51.712Z,11.77
2017-06-23T12:30:28.255Z,18.03
2017-06-23T12:33:01.771Z,9.43
2017-06-23T12:35:36.096Z,9.10
2017-06-23T12:38:12.163Z,8.40
2017-06-23T12:40:49.140Z,14.33
2017-06-23T12:43:21.802Z,7.70
2017-06-23T12:46:00.071Z,15.93
2017-06-23T12:48:33.610Z,14.70
2017-06-23T13:08:27.805Z,12.53
2017-06-23T13:11:03.446Z,11.97
2017-06-23T13:13:38.482Z,10.97
2017-06-23T13:16:14.712Z,9.50
2017-06-23T13:18:52.681Z,12.87
2017-06-23T13:21:25.014Z,8.80
2017-06-23T13:23:57.401Z,10.03
2017-06-23T13:26:30.785Z,10.17
2017-06-23T13:29:05.609Z,15.20
2017-06-23T13:31:40.639Z,18.60
2017-06-23T13:34:15.774Z,9.63
2017-06-23T13:36:49.691Z,9.30
2017-06-23T13:39:21.642Z,13.33
2017-06-23T13:41:56.585Z,10.20
2017-06-23T13:44:29.375Z,13.63
2017-06-23T13:47:01.730Z,9.20
2017-06-23T13:49:36.324Z,12.83
2017-06-23T13:52:11.286Z,10.80
2017-06-23T13:54:46.218Z,13.87
2017-06-23T13:57:18.683Z,9.10
2017-06-23T13:59:55.191Z,11.93
2017-06-23T14:02:31.108Z,8.87
2017-06-23T14:05:05.129Z,9.00
2017-06-23T14:07:38.305Z,9.63
2017-06-23T14:10:12.625Z,8.33
2017-06-23T14:12:44.071Z,10.57
2017-06-23T14:15:17.779Z,7.40
2017-06-23T14:17:51.052Z,9.70
2017-06-23T14:20:27.953Z,11.43
2017-06-23T14:23:03.080Z,8.87
2017-06-23T14:25:37.406Z,13.20
2017-06-23T14:28:11.714Z,8.07
2017-06-23T14:30:48.835Z,13.33
2017-06-23T14:33:20.041Z,8.60
2017-06-23T14:35:54.156Z,10.80
2017-06-23T14:38:28.743Z,7.90
2017-06-23T14:41:01.251Z,12.20
2017-06-23T14:43:34.542Z,10.97
2017-06-23T14:46:08.141Z,8.40
2017-06-23T14:48:40.210Z,9.13
2017-06-23T14:51:10.730Z,8.80
2017-06-23T15:11:00.114Z,9.83
2017-06-23T15:13:34.340Z,9.03
2017-06-23T15:16:08.306Z,11.33
2017-06-23T15:18:39.355Z,11.47
2017-06-23T15:21:12.152Z,7.97
2017-06-23T15:23:47.213Z,11.70
2017-06-23T15:26:19.655Z,10.60
2017-06-23T15:28:56.152Z,8.73
2017-06-23T15:31:29.423Z,12.60
2017-06-23T15:34:04.550Z,9.23
2017-06-23T15:36:37.928Z,6.77
2017-06-23T15:39:12.679Z,8.87
2017-06-23T15:41:44.434Z,12.43
2017-06-23T15:44:21.967Z,10.30
2017-06-23T15:46:53.164Z,8.27
2017-06-23T15:49:27.906Z,11.33
2017-06-23T15:52:04.887Z,10.60
2017-06-23T15:54:40.845Z,7.97
2017-06-23T15:57:13.893Z,7.87
2017-06-23T15:59:49.784Z,10.73
2017-06-23T16:02:25.752Z,6.37
2017-06-23T16:04:59.118Z,7.20
2017-06-23T16:07:31.176Z,9.93
2017-06-23T16:10:07.704Z,7.00
2017-06-23T16:12:40.651Z,12.40
2017-06-23T16:15:16.382Z,9.57
2017-06-23T16:17:54.572Z,8.10
2017-06-23T16:20:29.109Z,7.30
2017-06-23T16:23:03.940Z,11.40
2017-06-23T16:25:41.433Z,11.43
2017-06-23T16:28:16.447Z,8.47
2017-06-23T16:30:50.267Z,11.20
2017-06-23T16:33:22.330Z,9.87
2017-06-23T16:35:58.354Z,7.53
2017-06-23T16:38:30.324Z,11.70
2017-06-23T16:41:05.314Z,14.73
2017-06-23T16:43:38.578Z,8.47
2017-06-23T16:46:10.846Z,7.20
2017-06-23T16:48:44.789Z,7.77
2017-06-23T16:51:19.176Z,6.80
2017-06-23T16:53:55.145Z,11.00
2017-06-23T16:56:30.473Z,6.80
2017-06-23T16:59:08.060Z,5.73
2017-06-23T17:01:42.056Z,7.43
2017-06-23T17:04:16.797Z,8.63
2017-06-23T17:06:50.989Z,10.30
2017-06-23T17:09:22.965Z,8.57
2017-06-23T17:11:58.930Z,10.57
2017-06-23T17:14:33.932Z,6.27
2017-06-23T17:17:11.548Z,12.73
2017-06-23T17:19:46.837Z,9.70
2017-06-23T17:22:20.290Z,8.23
2017-06-23T17:24:55.320Z,11.10
2017-06-23T17:27:29.533Z,6.80
2017-06-23T17:30:05.183Z,5.73
2017-06-23T17:32:39.687Z,7.73
2017-06-23T17:35:14.227Z,10.73
2017-06-23T17:37:48.626Z,7.70
2017-06-23T17:40:24.494Z,6.53
2017-06-23T17:43:00.247Z,10.50
2017-06-23T17:45:36.537Z,5.90
2017-06-23T17:48:12.502Z,9.07
2017-06-23T17:50:46.777Z,7.10
2017-06-23T17:53:23.444Z,7.53
2017-06-23T17:56:02.409Z,7.20
2017-06-23T17:58:38.414Z,6.33
2017-06-23T18:01:11.933Z,6.47
2017-06-23T18:03:48.318Z,6.23
2017-06-23T18:06:22.310Z,5.50
2017-06-23T18:08:54.676Z,6.23
2017-06-23T18:11:33.227Z,7.10
2017-06-23T18:14:08.529Z,5.90
2017-06-23T18:16:46.190Z,6.93
2017-06-23T18:19:22.132Z,5.93
2017-06-23T18:21:55.112Z,4.47
2017-06-23T18:24:27.740Z,7.03
2017-06-23T18:27:01.852Z,7.60
2017-06-23T18:29:36.788Z,4.60
2017-06-23T18:32:09.154Z,5.10
2017-06-23T18:34:42.968Z,7.97
2017-06-23T18:37:19.917Z,4.30
2017-06-23T18:39:55.790Z,7.70
2017-06-23T18:42:32.564Z,8.00
2017-06-23T18:45:07.393Z,6.30
2017-06-23T18:47:43.792Z,4.90
2017-06-23T18:50:17.359Z,4.63
2017-06-23T18:52:54.730Z,4.57
2017-06-23T18:55:30.802Z,6.73
2017-06-23T18:58:08.668Z,5.17
2017-06-23T19:00:44.635Z,5.53
2017-06-23T19:03:22.605Z,5.43
2017-06-23T19:05:55.575Z,4.33
2017-06-23T19:08:28.328Z,6.63
2017-06-23T19:11:06.517Z,8.13
2017-06-23T19:13:42.696Z,4.77
2017-06-23T19:16:19.459Z,6.43
2017-06-23T19:18:54.912Z,7.30
2017-06-23T19:21:30.973Z,6.20
2017-06-23T19:24:05.379Z,5.03
2017-06-23T19:26:40.329Z,5.67
2017-06-23T19:29:13.202Z,4.37
2017-06-23T19:31:49.157Z,6.53
2017-06-23T19:34:24.235Z,6.37
2017-06-23T19:37:00.863Z,7.40
2017-06-23T19:39:33.437Z,5.53
2017-06-23T19:42:07.142Z,5.73
2017-06-23T19:44:42.130Z,5.17
2017-06-23T19:47:17.718Z,9.23
2017-06-23T19:49:52.854Z,7.87
2017-06-23T19:52:29.524Z,8.53
2017-06-23T19:55:03.738Z,5.10
2017-06-23T19:57:37.545Z,9.80
2017-06-23T20:00:10.633Z,6.03
2017-06-23T20:02:44.848Z,4.00
2017-06-23T20:05:20.083Z,14.43
2017-06-23T20:07:54.506Z,5.33
2017-06-23T20:10:27.804Z,11.83
2017-06-23T20:13:00.777Z,5.53
2017-06-23T20:15:34.378Z,4.43
2017-06-23T20:18:08.724Z,5.60
2017-06-23T20:20:43.691Z,3.70
2017-06-23T20:23:18.865Z,4.93
2017-06-23T20:25:55.620Z,4.33
2017-06-23T20:28:29.239Z,7.87
2017-06-23T20:31:02.128Z,7.60
2017-06-23T20:33:36.646Z,7.03
2017-06-23T20:36:12.805Z,4.47
2017-06-23T20:38:47.431Z,7.47
2017-06-23T20:41:21.850Z,5.30
2017-06-23T20:43:57.407Z,5.17
2017-06-23T20:46:33.375Z,4.53
2017-06-23T20:49:06.345Z,7.67
2017-06-23T20:51:37.352Z,4.87
2017-06-23T20:54:26.283Z,6.50
2017-06-23T20:57:00.756Z,9.10
2017-06-23T20:59:38.041Z,7.17
2017-06-23T21:02:14.922Z,4.13
2017-06-23T21:04:50.054Z,5.40
2017-06-23T21:07:22.127Z,4.53
2017-06-23T21:09:58.106Z,5.80
2017-06-23T21:12:32.078Z,6.43
2017-06-23T21:15:07.317Z,5.10
2017-06-23T21:17:41.009Z,11.13
2017-06-23T21:20:17.976Z,5.53
2017-06-23T21:22:53.006Z,7.30
2017-06-23T21:25:27.911Z,7.30
2017-06-23T21:28:01.461Z,4.73
2017-06-23T21:30:38.230Z,7.90
2017-06-23T21:33:11.821Z,8.60
2017-06-23T21:35:50.788Z,5.20
2017-06-23T21:38:32.450Z,5.87
2017-06-23T21:41:21.723Z,9.93
2017-06-23T21:43:52.346Z,6.87
2017-06-23T21:46:28.408Z,9.60
2017-06-23T21:48:58.715Z,5.73
2017-06-23T21:51:34.603Z,8.17
2017-06-23T21:54:08.569Z,8.43
2017-06-23T21:56:40.663Z,7.90
2017-06-23T21:59:16.210Z,7.10
2017-06-23T22:01:47.033Z,5.20
2017-06-23T22:04:17.145Z,6.73
2017-06-23T22:06:52.420Z,6.00
2017-06-23T22:09:25.392Z,4.13
2017-06-23T22:12:01.374Z,7.43
2017-06-23T22:14:34.212Z,5.40
2017-06-23T22:17:08.301Z,4.93
2017-06-23T22:19:44.174Z,6.27
2017-06-23T22:22:19.236Z,6.03
2017-06-23T22:24:52.911Z,6.90
2017-06-23T22:27:26.408Z,9.47
2017-06-23T22:30:01.852Z,9.47
2017-06-23T22:32:37.806Z,7.07
2017-06-23T22:35:11.082Z,6.10
2017-06-23T22:37:44.052Z,6.57
2017-06-23T22:40:18.909Z,6.43
2017-06-23T22:42:54.661Z,8.43
2017-06-23T22:45:30.962Z,6.57
2017-06-23T22:48:07.927Z,5.63
2017-06-23T22:50:41.500Z,4.63
2017-06-23T22:53:18.792Z,5.33
2017-06-23T22:55:53.836Z,5.53
2017-06-23T22:58:31.804Z,5.53
2017-06-23T23:01:04.778Z,5.83
2017-06-23T23:03:39.540Z,7.53
2017-06-23T23:06:13.850Z,5.13
2017-06-23T23:08:46.363Z,7.10
2017-06-23T23:11:20.643Z,5.70
2017-06-23T23:13:56.393Z,6.13
2017-06-23T23:16:32.590Z,4.87
2017-06-23T23:19:06.255Z,7.53
2017-06-23T23:21:43.334Z,5.57
2017-06-23T23:24:18.986Z,7.83
2017-06-23T23:26:54.468Z,8.90
2017-06-23T23:29:29.464Z,8.37
2017-06-23T23:32:05.621Z,5.63
2017-06-23T23:34:41.377Z,5.80
2017-06-23T23:37:14.356Z,6.20
2017-06-23T23:39:49.813Z,5.87
2017-06-23T23:42:21.961Z,7.30
2017-06-23T23:44:56.895Z,3.50
2017-06-23T23:47:31.223Z,5.63
2017-06-23T23:50:03.586Z,5.13
2017-06-23T23:52:43.635Z,5.60
